createdAt,value
2023-02-19T00:02:07.449Z,100551.12
2023-02-19T00:05:16.159Z,100548.06
2023-02-19T00:08:24.494Z,100545.56
2023-02-19T00:11:35.250Z,100549.41
2023-02-19T00:14:43.456Z,100543.00
2023-02-19T00:17:58.492Z,100547.53
2023-02-19T00:21:07.310Z,100534.19
2023-02-19T00:24:19.461Z,100539.59
2023-02-19T00:27:28.017Z,100545.34
2023-02-19T00:30:42.531Z,100543.84
2023-02-19T00:33:45.911Z,100544.28
2023-02-19T00:37:00.519Z,100544.09
2023-02-19T00:40:08.436Z,100536.72
2023-02-19T00:43:17.050Z,100535.03
2023-02-19T00:46:36.619Z,100530.78
2023-02-19T00:49:45.113Z,100534.03
2023-02-19T00:52:53.497Z,100524.91
2023-02-19T00:56:09.940Z,100528.28
2023-02-19T00:59:24.466Z,100531.84
2023-02-19T01:02:32.544Z,100542.44
2023-02-19T01:05:41.230Z,100552.22
2023-02-19T01:08:56.435Z,100564.38
2023-02-19T01:12:06.635Z,100544.84
2023-02-19T01:15:15.505Z,100547.19
2023-02-19T01:18:30.464Z,100539.78
2023-02-19T01:21:32.451Z,100542.28
2023-02-19T01:24:47.481Z,100525.81
2023-02-19T01:27:49.270Z,100534.59
2023-02-19T01:31:08.901Z,100532.56
2023-02-19T01:34:18.586Z,100538.81
2023-02-19T01:37:33.517Z,100526.81
2023-02-19T01:40:42.458Z,100543.19
2023-02-19T01:44:06.487Z,100544.72
2023-02-19T01:47:15.498Z,100559.78
2023-02-19T01:50:34.513Z,100541.59
2023-02-19T01:53:47.758Z,100535.53
2023-02-19T01:57:13.529Z,100541.72
2023-02-19T02:00:17.026Z,100542.53
2023-02-19T02:03:32.555Z,100544.19
2023-02-19T02:06:58.539Z,100533.84
2023-02-19T02:10:07.433Z,100519.63
2023-02-19T02:13:16.482Z,100516.53
2023-02-19T02:16:41.649Z,100521.31
2023-02-19T02:20:19.509Z,100525.16
2023-02-19T02:23:47.576Z,100535.28
2023-02-19T02:27:17.511Z,100505.22
2023-02-19T02:30:37.678Z,100517.44
2023-02-19T02:34:15.556Z,100519.78
2023-02-19T02:37:17.474Z,100512.75
2023-02-19T02:40:32.499Z,100507.38
2023-02-19T02:43:34.713Z,100512.75
2023-02-19T02:46:52.553Z,100507.84
2023-02-19T02:50:03.594Z,100521.06
2023-02-19T02:53:42.529Z,100522.16
2023-02-19T02:56:59.552Z,100522.81
2023-02-19T03:00:15.532Z,100525.37
2023-02-19T03:03:27.468Z,100533.59
2023-02-19T03:06:39.592Z,100532.56
2023-02-19T03:09:49.707Z,100538.31
2023-02-19T03:13:08.530Z,100532.59
2023-02-19T03:16:25.567Z,100530.59
2023-02-19T03:19:41.131Z,100528.59
2023-02-19T03:22:52.585Z,100534.31
2023-02-19T03:26:01.567Z,100525.50
2023-02-19T03:29:19.548Z,100523.50
2023-02-19T03:32:34.533Z,100540.75
2023-02-19T03:35:56.199Z,100545.59
2023-02-19T03:39:12.536Z,100547.72
2023-02-19T03:42:42.389Z,100533.59
2023-02-19T03:46:13.630Z,100534.81
2023-02-19T03:49:27.227Z,100546.44
2023-02-19T03:53:08.582Z,100536.81
2023-02-19T03:56:34.650Z,100539.19
2023-02-19T03:59:53.153Z,100537.34
2023-02-19T04:03:22.559Z,100533.66
2023-02-19T04:06:40.566Z,100528.28
2023-02-19T04:09:48.810Z,100521.38
2023-02-19T04:13:12.561Z,100523.06
2023-02-19T04:16:27.602Z,100532.50
2023-02-19T04:19:39.871Z,100537.22
2023-02-19T04:22:48.581Z,100536.13
2023-02-19T04:26:00.326Z,100538.72
2023-02-19T04:29:09.636Z,100536.53
2023-02-19T04:32:24.655Z,100533.34
2023-02-19T04:35:26.473Z,100536.19
2023-02-19T04:38:41.595Z,100533.62
2023-02-19T04:41:43.485Z,100532.34
2023-02-19T04:44:58.614Z,100532.72
2023-02-19T04:48:00.473Z,100525.09
2023-02-19T04:51:16.638Z,100510.97
2023-02-19T04:54:25.662Z,100529.34
2023-02-19T04:57:35.173Z,100535.87
2023-02-19T05:00:44.593Z,100535.03
2023-02-19T05:03:53.228Z,100516.72
2023-02-19T05:07:01.634Z,100515.81
2023-02-19T05:10:10.246Z,100528.28
2023-02-19T05:13:20.669Z,100526.69
2023-02-19T05:16:29.370Z,100535.97
2023-02-19T05:19:37.617Z,100530.69
2023-02-19T05:22:52.622Z,100532.37
2023-02-19T05:25:54.902Z,100532.97
2023-02-19T05:29:09.620Z,100544.66
2023-02-19T05:32:17.661Z,100539.00
2023-02-19T05:35:32.627Z,100541.03
2023-02-19T05:38:41.633Z,100531.53
2023-02-19T05:41:50.366Z,100525.47
2023-02-19T05:44:58.647Z,100521.13
2023-02-19T05:48:14.589Z,100514.44
2023-02-19T05:51:19.309Z,100524.38
2023-02-19T05:54:36.641Z,100517.66
2023-02-19T05:57:47.837Z,100534.28
2023-02-19T06:00:56.617Z,100537.50
2023-02-19T06:04:05.737Z,100544.56
2023-02-19T06:07:14.658Z,100548.59
2023-02-19T06:10:23.737Z,100549.59
2023-02-19T06:13:31.650Z,100547.03
2023-02-19T06:16:40.608Z,100553.91
2023-02-19T06:19:48.698Z,100541.22
2023-02-19T06:22:57.586Z,100546.97
2023-02-19T06:26:15.649Z,100535.81
2023-02-19T06:29:25.486Z,100528.75
2023-02-19T06:32:33.664Z,100524.22
2023-02-19T06:35:48.641Z,100523.12
2023-02-19T06:38:57.689Z,100526.38
2023-02-19T06:42:12.686Z,100526.16
2023-02-19T06:45:20.654Z,100516.16
2023-02-19T06:48:37.685Z,100517.47
2023-02-19T06:51:39.596Z,100520.06
2023-02-19T06:55:01.729Z,100523.38
2023-02-19T06:58:16.677Z,100533.41
2023-02-19T07:01:26.628Z,100528.03
2023-02-19T07:04:34.701Z,100518.91
2023-02-19T07:07:45.851Z,100526.41
2023-02-19T07:11:02.905Z,100531.03
2023-02-19T07:14:21.690Z,100532.44
2023-02-19T07:17:23.518Z,100544.00
2023-02-19T07:20:39.692Z,100539.13
2023-02-19T07:23:41.838Z,100537.88
2023-02-19T07:26:56.689Z,100531.84
2023-02-19T07:30:04.685Z,100532.88
2023-02-19T07:33:14.565Z,100540.94
2023-02-19T07:36:24.671Z,100531.00
2023-02-19T07:39:33.557Z,100524.78
2023-02-19T07:42:41.765Z,100521.25
2023-02-19T07:45:51.506Z,100524.69
2023-02-19T07:48:59.712Z,100519.38
2023-02-19T07:52:14.717Z,100518.25
2023-02-19T07:55:32.285Z,100523.06
2023-02-19T07:58:41.711Z,100528.00
2023-02-19T08:01:57.703Z,100541.28
2023-02-19T08:05:13.686Z,100541.25
2023-02-19T08:08:16.045Z,100547.16
2023-02-19T08:11:30.682Z,100551.53
2023-02-19T08:14:45.734Z,100551.28
2023-02-19T08:18:00.690Z,100548.00
2023-02-19T08:21:11.462Z,100554.81
2023-02-19T08:24:19.703Z,100564.91
2023-02-19T08:27:28.380Z,100540.78
2023-02-19T08:30:45.840Z,100525.94
2023-02-19T08:33:55.774Z,100560.19
2023-02-19T08:37:04.474Z,100561.25
2023-02-19T08:40:12.750Z,100559.41
2023-02-19T08:43:21.373Z,100539.19
2023-02-19T08:46:35.737Z,100541.41
2023-02-19T08:49:44.761Z,100531.59
2023-02-19T08:52:52.713Z,100532.22
2023-02-19T08:56:16.697Z,100537.31
2023-02-19T08:59:24.729Z,100525.53
2023-02-19T09:02:39.817Z,100531.72
2023-02-19T09:05:41.986Z,100537.81
2023-02-19T09:08:56.794Z,100523.72
2023-02-19T09:12:05.760Z,100530.06
2023-02-19T09:15:20.696Z,100534.19
2023-02-19T09:18:29.567Z,100527.81
2023-02-19T09:21:48.753Z,100521.09
2023-02-19T09:24:50.654Z,100513.28
2023-02-19T09:28:05.733Z,100517.06
2023-02-19T09:31:17.106Z,100520.53
2023-02-19T09:34:26.990Z,100528.66
2023-02-19T09:37:41.736Z,100516.84
2023-02-19T09:40:43.793Z,100511.78
2023-02-19T09:43:59.812Z,100512.84
2023-02-19T09:47:11.750Z,100510.97
2023-02-19T09:50:25.409Z,100500.56
2023-02-19T09:53:46.778Z,100503.81
2023-02-19T09:57:03.834Z,100503.47
2023-02-19T10:00:22.777Z,100492.22
2023-02-19T10:03:34.832Z,100491.75
2023-02-19T10:06:43.921Z,100480.38
2023-02-19T10:09:59.040Z,100474.66
2023-02-19T10:13:30.365Z,100467.16
2023-02-19T10:16:33.637Z,100466.75
2023-02-19T10:19:48.733Z,100445.09
2023-02-19T10:23:04.226Z,100449.47
2023-02-19T10:26:18.736Z,100443.44
2023-02-19T10:29:22.467Z,100452.03
2023-02-19T10:32:36.754Z,100433.37
2023-02-19T10:36:03.917Z,100433.00
2023-02-19T10:39:35.200Z,100426.78
2023-02-19T10:42:53.824Z,100412.56
2023-02-19T10:46:20.852Z,100414.59
2023-02-19T10:49:39.830Z,100401.25
2023-02-19T10:53:01.767Z,100400.53
2023-02-19T10:56:22.620Z,100392.66
2023-02-19T10:59:37.786Z,100379.16
2023-02-19T11:02:45.807Z,100381.16
2023-02-19T11:06:02.038Z,100380.09
2023-02-19T11:09:10.770Z,100363.97
2023-02-19T11:12:26.957Z,100347.66
2023-02-19T11:15:38.817Z,100325.25
2023-02-19T11:18:57.014Z,100325.59
2023-02-19T11:22:07.849Z,100333.62
2023-02-19T11:25:27.802Z,100313.12
2023-02-19T11:28:46.814Z,100323.22
2023-02-19T11:31:49.124Z,100321.06
2023-02-19T11:35:23.803Z,100313.31
2023-02-19T11:38:32.809Z,100308.09
2023-02-19T11:42:13.809Z,100299.16
2023-02-19T11:45:37.085Z,100307.00
2023-02-19T11:49:01.860Z,100292.91
2023-02-19T11:52:28.824Z,100278.56
2023-02-19T11:56:01.488Z,100265.31
2023-02-19T11:59:11.795Z,100269.53
2023-02-19T12:02:37.576Z,100268.41
2023-02-19T12:06:04.835Z,100258.06
2023-02-19T12:09:33.269Z,100254.56
2023-02-19T12:13:11.806Z,100250.63
2023-02-19T12:16:44.901Z,100246.25
2023-02-19T12:20:22.929Z,100233.37
2023-02-19T12:23:51.622Z,100252.22
2023-02-19T12:27:31.822Z,100237.34
2023-02-19T12:30:59.893Z,100250.66
2023-02-19T12:34:34.850Z,100247.66
2023-02-19T12:38:09.861Z,100243.56
2023-02-19T12:41:28.354Z,100252.25
2023-02-19T12:44:53.877Z,100258.69
2023-02-19T12:48:30.863Z,100262.81
2023-02-19T12:51:50.934Z,100258.44
2023-02-19T12:55:17.833Z,100285.09
2023-02-19T12:58:45.849Z,100344.97
2023-02-19T13:02:10.897Z,100322.72
2023-02-19T13:05:41.848Z,100347.53
2023-02-19T13:09:06.639Z,100325.63
2023-02-19T13:12:35.885Z,100296.59
2023-02-19T13:15:55.837Z,100283.66
2023-02-19T13:19:08.977Z,100278.53
2023-02-19T13:22:42.982Z,100265.16
2023-02-19T13:26:12.038Z,100264.53
2023-02-19T13:29:58.842Z,100283.88
2023-02-19T13:33:21.912Z,100271.03
2023-02-19T13:36:37.884Z,100271.22
2023-02-19T13:39:55.874Z,100268.63
2023-02-19T13:43:21.528Z,100264.13
2023-02-19T13:46:31.921Z,100288.09
2023-02-19T13:49:41.397Z,100310.22
2023-02-19T13:52:49.994Z,100313.97
2023-02-19T13:56:43.913Z,100302.63
2023-02-19T13:59:48.384Z,100327.44
2023-02-19T14:03:33.849Z,100357.69
2023-02-19T14:07:02.437Z,100362.87
2023-02-19T14:10:39.915Z,100347.69
2023-02-19T14:13:58.726Z,100367.06
2023-02-19T14:17:37.029Z,100382.06
2023-02-19T14:20:45.851Z,100381.88
2023-02-19T14:24:00.026Z,100395.88
2023-02-19T14:27:14.868Z,100403.31
2023-02-19T14:30:27.398Z,100399.78
2023-02-19T14:33:39.914Z,100406.16
2023-02-19T14:40:11.889Z,100415.12
2023-02-19T14:43:24.176Z,100433.69
2023-02-19T14:46:38.972Z,100436.03
2023-02-19T14:49:51.844Z,100439.56
2023-02-19T14:53:04.918Z,100437.56
2023-02-19T14:56:24.466Z,100433.47
2023-02-19T14:59:38.896Z,100440.06
2023-02-19T15:02:55.908Z,100437.03
2023-02-19T15:06:18.885Z,100438.81
2023-02-19T15:09:38.964Z,100443.03
2023-02-19T15:12:51.560Z,100442.94
2023-02-19T15:16:06.970Z,100464.97
2023-02-19T15:19:12.946Z,100468.09
2023-02-19T15:22:31.050Z,100460.72
2023-02-19T15:25:39.973Z,100472.62
2023-02-19T15:29:03.945Z,100482.09
2023-02-19T15:32:18.560Z,100473.97
2023-02-19T15:35:34.999Z,100470.75
2023-02-19T15:38:43.941Z,100457.91
2023-02-19T15:42:00.120Z,100455.69
2023-02-19T15:45:17.992Z,100454.97
2023-02-19T15:48:35.020Z,100442.75
2023-02-19T15:51:53.973Z,100440.22
2023-02-19T15:55:32.945Z,100449.53
2023-02-19T15:58:52.605Z,100461.25
2023-02-19T16:02:08.969Z,100459.84
2023-02-19T16:05:33.981Z,100465.62
2023-02-19T16:08:44.985Z,100459.84
2023-02-19T16:12:03.994Z,100468.66
2023-02-19T16:15:14.805Z,100474.97
2023-02-19T16:18:29.979Z,100480.81
2023-02-19T16:21:39.010Z,100488.37
2023-02-19T16:24:57.921Z,100488.72
2023-02-19T16:28:07.045Z,100502.00
2023-02-19T16:31:16.193Z,100501.19
2023-02-19T16:34:38.038Z,100489.66
2023-02-19T16:37:58.549Z,100515.63
2023-02-19T16:41:17.958Z,100518.97
2023-02-19T16:44:39.969Z,100535.56
2023-02-19T16:47:49.064Z,100518.22
2023-02-19T16:51:05.025Z,100525.28
2023-02-19T16:54:09.422Z,100522.63
2023-02-19T16:57:25.004Z,100513.38
2023-02-19T17:00:38.013Z,100523.38
2023-02-19T17:03:47.087Z,100516.00
2023-02-19T17:06:56.016Z,100526.19
2023-02-19T17:10:05.213Z,100538.25
2023-02-19T17:13:21.002Z,100544.47
2023-02-19T17:16:33.019Z,100545.78
2023-02-19T17:19:42.037Z,100552.28
2023-02-19T17:22:57.971Z,100529.09
2023-02-19T17:26:13.018Z,100548.69
2023-02-19T17:29:16.530Z,100540.03
2023-02-19T17:32:31.242Z,100555.44
2023-02-19T17:35:33.337Z,100560.28
2023-02-19T17:38:48.990Z,100574.69
2023-02-19T17:41:57.985Z,100568.19
2023-02-19T17:45:14.023Z,100575.13
2023-02-19T17:48:23.008Z,100590.81
2023-02-19T17:51:37.968Z,100596.66
2023-02-19T17:54:40.245Z,100580.53
2023-02-19T17:58:01.984Z,100605.69
2023-02-19T18:01:11.516Z,100611.91
2023-02-19T18:04:27.046Z,100614.75
2023-02-19T18:07:29.237Z,100608.25
2023-02-19T18:10:44.977Z,100614.16
2023-02-19T18:13:48.161Z,100621.50
2023-02-19T18:17:04.101Z,100623.19
2023-02-19T18:20:18.638Z,100638.22
2023-02-19T18:23:34.062Z,100638.91
2023-02-19T18:26:50.003Z,100652.34
2023-02-19T18:30:06.108Z,100659.94
2023-02-19T18:33:15.099Z,100680.06
2023-02-19T18:36:30.115Z,100670.84
2023-02-19T18:39:46.039Z,100676.53
2023-02-19T18:42:54.102Z,100685.47
2023-02-19T18:46:03.013Z,100714.03
2023-02-19T18:49:12.082Z,100714.31
2023-02-19T18:52:22.662Z,100716.28
2023-02-19T18:55:32.381Z,100722.97
2023-02-19T18:58:41.026Z,100728.87
2023-02-19T19:01:50.081Z,100738.06
2023-02-19T19:05:05.069Z,100753.62
2023-02-19T19:08:07.233Z,100757.75
2023-02-19T19:11:23.039Z,100757.44
2023-02-19T19:14:25.528Z,100769.16
2023-02-19T19:17:41.029Z,100769.47
2023-02-19T19:20:52.036Z,100755.75
2023-02-19T19:24:02.165Z,100757.44
2023-02-19T19:27:11.054Z,100750.38
2023-02-19T19:30:20.432Z,100746.00
2023-02-19T19:33:36.358Z,100749.53
2023-02-19T19:36:45.072Z,100744.31
2023-02-19T19:39:54.129Z,100752.22
2023-02-19T19:43:09.070Z,100748.69
2023-02-19T19:46:19.340Z,100763.22
2023-02-19T19:49:30.114Z,100765.38
2023-02-19T19:52:46.193Z,100762.94
2023-02-19T19:55:48.372Z,100771.84
2023-02-19T19:59:03.066Z,100785.56
2023-02-19T20:02:06.877Z,100785.69
2023-02-19T20:05:23.101Z,100792.87
2023-02-19T20:08:25.449Z,100794.25
2023-02-19T20:11:40.101Z,100799.34
2023-02-19T20:14:46.060Z,100811.53
2023-02-19T20:18:02.109Z,100826.38
2023-02-19T20:21:18.077Z,100848.25
2023-02-19T20:24:34.052Z,100842.78
2023-02-19T20:27:43.021Z,100865.50
2023-02-19T20:30:59.163Z,100871.47
2023-02-19T20:34:14.038Z,100879.81
2023-02-19T20:37:16.681Z,100894.34
2023-02-19T20:40:33.082Z,100911.03
2023-02-19T20:43:35.205Z,100903.03
2023-02-19T20:46:56.056Z,100924.19
2023-02-19T20:49:58.237Z,100928.53
2023-02-19T20:53:14.122Z,100930.72
2023-02-19T20:56:16.251Z,100950.00
2023-02-19T20:59:39.076Z,100947.00
2023-02-19T21:02:41.250Z,100953.22
2023-02-19T21:05:57.091Z,100952.44
2023-02-19T21:08:59.270Z,100937.84
2023-02-19T21:12:15.188Z,100952.81
2023-02-19T21:15:17.345Z,100955.50
2023-02-19T21:18:32.100Z,100969.44
2023-02-19T21:21:41.111Z,100961.53
2023-02-19T21:24:57.082Z,100946.09
2023-02-19T21:27:59.072Z,100970.50
2023-02-19T21:31:15.136Z,100967.31
2023-02-19T21:34:27.128Z,100970.66
2023-02-19T21:37:35.789Z,100968.75
2023-02-19T21:40:44.080Z,100968.00
2023-02-19T21:43:55.007Z,100975.34
2023-02-19T21:47:04.126Z,100964.88
2023-02-19T21:50:13.146Z,100974.88
2023-02-19T21:53:22.101Z,100973.78
2023-02-19T21:56:39.138Z,100962.37
2023-02-19T21:59:41.305Z,100961.88
2023-02-19T22:02:57.122Z,100955.31
2023-02-19T22:06:01.869Z,100974.91
2023-02-19T22:09:17.090Z,100976.88
2023-02-19T22:12:26.117Z,100969.91
2023-02-19T22:15:35.213Z,100988.91
2023-02-19T22:18:44.133Z,100985.50
2023-02-19T22:21:53.154Z,100995.81
2023-02-19T22:25:01.161Z,101002.59
2023-02-19T22:28:16.122Z,100997.25
2023-02-19T22:31:20.425Z,101006.34
2023-02-19T22:34:35.143Z,101020.56
2023-02-19T22:37:37.048Z,101024.31
2023-02-19T22:40:52.191Z,101035.62
2023-02-19T22:43:55.347Z,101035.84
2023-02-19T22:47:10.165Z,101039.16
2023-02-19T22:50:20.897Z,101060.78
2023-02-19T22:53:36.155Z,101056.53
2023-02-19T22:56:37.998Z,101058.22
2023-02-19T23:00:00.170Z,101061.72
2023-02-19T23:03:08.149Z,101070.47
2023-02-19T23:06:27.116Z,101082.31
2023-02-19T23:09:36.134Z,101086.66
2023-02-19T23:12:44.760Z,101086.22
2023-02-19T23:15:59.113Z,101088.81
2023-02-19T23:19:01.916Z,101094.31
2023-02-19T23:22:16.140Z,101097.16
2023-02-19T23:25:18.117Z,101103.88
2023-02-19T23:28:33.161Z,101105.66
2023-02-19T23:31:35.167Z,101127.59
2023-02-19T23:34:50.197Z,101129.19
2023-02-19T23:37:52.053Z,101118.37
2023-02-19T23:41:07.162Z,101143.00
2023-02-19T23:44:24.209Z,101143.97
2023-02-19T23:47:26.104Z,101155.63
2023-02-19T23:50:45.203Z,101149.09
2023-02-19T23:53:47.118Z,101146.34
2023-02-19T23:57:09.173Z,101156.53
